Weather History for Stanton, MN

Change the Weather History Date:

Tuesday, November 6, 2012

  Actual Average (KLVN) Record (KLVN)
Temperature  
Mean Temperature 42 °F -  
Max Temperature 45 °F 45 °F 71 °F (2004)
Min Temperature 39 °F 27 °F 4 °F (1951)
Degree Days  
Heating Degree Days 23    
Moisture  
Dew Point 36 °F    
Average Humidity 82    
Maximum Humidity 91    
Minimum Humidity 68    
Precipitation  
Precipitation 0.10 in - - ()
Sea Level Pressure  
Sea Level Pressure 29.84 in    
Wind  
Wind Speed 12 mph (West)    
Max Wind Speed 17 mph    
Max Gust Speed 23 mph    
Visibility 8 miles    
Events Rain    
Averages and records for this station are not official NWS values.
T = Trace of Precipitation, MM = Missing Value Source: NWS Daily Summary

Daily Weather History Graph

Daily Weather History Graph

Search for Another Location

Airport:

Trip Planner

Search our weather history database for the weather conditions in past years. The results will help you decide how hot, cold, wet, or windy it might be!

Date:

Astronomy

Nov. 06, 2012 Rise Set
Actual Time 6:56 AM CST 4:53 PM CST
Civil Twilight 6:26 AM CST 5:24 PM CST
Nautical Twilight 5:51 AM CST 5:59 PM CST
Astronomical Twilight 5:17 AM CST 6:33 PM CST
Moon 11:36 PM CST (11/6) 12:47 PM CST (11/6)
Length of Visible Light 10h 58m
Length of Day
9h 57m
Waning Gibbous, 53% of the Moon is Illuminated
Nov 6
Waning Gibbous
Nov 6
Last Quarter
Nov 13
New
Nov 20
First Quarter
Nov 28
Full

Hourly Weather History & Observations

Time (CST) Temp. Windchill Dew Point Humidity Pressure Visibility Wind Dir Wind Speed Gust Speed Precip Events Conditions
12:13 AM 42.8 °F 37.5 °F 35.1 °F 74% 29.94 in 7.0 mi SSW 9.2 mph 16.1 mph N/A   Overcast
12:32 AM 42.4 °F 36.5 °F 35.1 °F 75% 29.94 in 7.0 mi SSW 10.4 mph - N/A   Overcast
12:52 AM 42.8 °F 37.0 °F 34.9 °F 74% 29.93 in 7.0 mi South 10.4 mph 17.3 mph N/A   Overcast
1:12 AM 42.8 °F 36.2 °F 35.2 °F 75% 29.92 in 7.0 mi SSW 12.7 mph 18.4 mph N/A   Overcast
1:32 AM 42.4 °F 35.7 °F 35.6 °F 77% 29.91 in 7.0 mi SSW 12.7 mph 18.4 mph N/A Rain Light Rain
1:52 AM 41.5 °F 34.6 °F 36.7 °F 83% 29.91 in 5.0 mi SSW 12.7 mph 18.4 mph N/A Rain Light Rain
2:12 AM 41.5 °F 35.4 °F 36.9 °F 83% 29.90 in 5.0 mi SSW 10.4 mph 17.3 mph N/A Rain Light Rain
2:32 AM 41.2 °F 36.0 °F 36.9 °F 85% 29.89 in 5.0 mi SSW 8.1 mph 17.3 mph 0.01 in Rain Light Rain
2:52 AM 41.0 °F 33.9 °F 37.2 °F 86% 29.88 in 4.0 mi SSW 12.7 mph 17.3 mph 0.02 in Rain Light Rain
3:12 AM 40.5 °F 34.1 °F 36.9 °F 87% 29.86 in 4.0 mi SSW 10.4 mph 19.6 mph 0.01 in Rain Rain
3:32 AM 40.5 °F 34.1 °F 36.7 °F 86% 29.85 in 5.0 mi South 10.4 mph 17.3 mph 0.02 in Rain Light Rain
3:52 AM 40.3 °F 32.2 °F 36.7 °F 87% 29.83 in 5.0 mi South 15.0 mph 19.6 mph 0.03 in Rain Light Rain
4:12 AM 40.3 °F 33.4 °F 36.7 °F 87% 29.82 in 5.0 mi South 11.5 mph 19.6 mph 0.01 in Rain Light Rain
4:32 AM 40.5 °F 33.6 °F 37.0 °F 88% 29.81 in 5.0 mi South 11.5 mph 16.1 mph 0.01 in Rain Rain
4:52 AM 40.5 °F 33.2 °F 37.0 °F 88% 29.80 in 5.0 mi South 12.7 mph 16.1 mph 0.01 in   Overcast
5:12 AM 40.8 °F 34.1 °F 37.4 °F 88% 29.79 in 7.0 mi SSW 11.5 mph 18.4 mph N/A   Overcast
5:32 AM 41.0 °F 35.2 °F 37.8 °F 88% 29.78 in 5.0 mi SSW 9.2 mph 17.3 mph 0.01 in Rain Light Rain
5:52 AM 41.0 °F 33.5 °F 37.9 °F 89% 29.78 in 4.0 mi SSW 13.8 mph - 0.02 in Rain Rain
6:12 AM 41.2 °F 33.0 °F 37.9 °F 88% 29.78 in 5.0 mi SSW 16.1 mph 20.7 mph N/A Rain Light Rain
6:32 AM 41.4 °F 33.3 °F 38.3 °F 89% 29.77 in 5.0 mi SW 16.1 mph - 0.01 in   Drizzle
6:52 AM 41.4 °F 33.6 °F 38.3 °F 89% 29.77 in 3.0 mi SW 15.0 mph - 0.01 in   Overcast
7:12 AM 41.0 °F 32.8 °F 38.5 °F 91% 29.77 in 3.0 mi SW 16.1 mph - N/A   Overcast
7:32 AM 41.0 °F 34.7 °F 38.3 °F 90% 29.77 in 3.0 mi SW 10.4 mph - N/A   Overcast
7:52 AM 41.2 °F 34.1 °F 38.7 °F 91% 29.77 in 5.0 mi SW 12.7 mph - N/A   Overcast
8:12 AM 41.9 °F 36.3 °F 38.7 °F 88% 29.78 in 5.0 mi SW 9.2 mph - N/A   Overcast
8:33 AM 41.9 °F 35.0 °F 38.8 °F 89% 29.77 in 2.0 mi West 12.7 mph 16.1 mph N/A   Overcast
8:52 AM 41.9 °F 35.4 °F 38.7 °F 88% 29.78 in 4.0 mi West 11.5 mph 18.4 mph N/A   Overcast
9:12 AM 42.6 °F 35.9 °F 38.7 °F 86% 29.78 in 10.0 mi West 12.7 mph 17.3 mph N/A   Overcast
9:32 AM 43.5 °F 36.4 °F 38.1 °F 81% 29.78 in 10.0 mi WNW 15.0 mph - N/A   Overcast
9:53 AM 43.2 °F 36.6 °F 38.1 °F 82% 29.78 in 10.0 mi WNW 12.7 mph - N/A   Overcast
10:12 AM 43.3 °F 37.2 °F 36.3 °F 76% 29.78 in 10.0 mi NW 11.5 mph 20.7 mph N/A   Overcast
10:32 AM 43.0 °F 35.7 °F 37.0 °F 80% 29.79 in 10.0 mi WNW 15.0 mph 18.4 mph N/A   Overcast
10:53 AM 42.8 °F 36.2 °F 36.5 °F 78% 29.79 in 10.0 mi WNW 12.7 mph 20.7 mph N/A   Overcast
11:12 AM 42.4 °F 34.4 °F 35.6 °F 77% 29.80 in 10.0 mi WNW 17.3 mph - N/A   Overcast
11:32 AM 42.8 °F 35.1 °F 36.0 °F 77% 29.79 in 10.0 mi WNW 16.1 mph - N/A   Overcast
11:53 AM 43.5 °F 37.1 °F 35.8 °F 74% 29.79 in 10.0 mi NW 12.7 mph 19.6 mph N/A   Overcast
12:12 PM 44.8 °F 38.7 °F 35.8 °F 71% 29.78 in 10.0 mi NW 12.7 mph - N/A   Overcast
12:32 PM 44.8 °F 38.0 °F 34.7 °F 68% 29.78 in 10.0 mi NW 15.0 mph - N/A   Overcast
12:53 PM 45.1 °F 38.8 °F 35.1 °F 68% 29.78 in 10.0 mi NW 13.8 mph - N/A   Overcast
1:12 PM 44.4 °F 38.6 °F 34.9 °F 69% 29.79 in 10.0 mi NW 11.5 mph 17.3 mph N/A   Overcast
1:32 PM 44.4 °F 38.6 °F 35.2 °F 70% 29.79 in 10.0 mi WNW 11.5 mph 20.7 mph N/A   Overcast
1:53 PM 43.3 °F 36.5 °F 35.8 °F 75% 29.79 in 7.0 mi WNW 13.8 mph - N/A   Overcast
2:12 PM 42.3 °F 35.5 °F 37.6 °F 83% 29.80 in 5.0 mi WNW 12.7 mph - N/A   Light Drizzle
2:32 PM 42.3 °F 36.8 °F 37.6 °F 83% 29.80 in 10.0 mi WNW 9.2 mph - N/A   Overcast
2:52 PM 42.8 °F 37.5 °F 37.4 °F 81% 29.80 in 10.0 mi West 9.2 mph - N/A   Overcast
3:12 PM 42.3 °F 35.1 °F 37.2 °F 82% 29.81 in 10.0 mi WNW 13.8 mph - N/A Rain Rain
3:32 PM 41.9 °F 35.4 °F 36.9 °F 82% 29.82 in 10.0 mi WNW 11.5 mph - N/A   Light Drizzle
3:52 PM 41.5 °F 36.4 °F 37.2 °F 85% 29.82 in 10.0 mi WNW 8.1 mph - N/A   Light Drizzle
4:12 PM 41.4 °F 37.6 °F 37.4 °F 86% 29.82 in 10.0 mi WNW 5.8 mph - N/A   Drizzle
4:32 PM 41.5 °F 34.2 °F 37.4 °F 85% 29.83 in 7.0 mi WNW 13.8 mph 18.4 mph N/A Rain Rain
4:52 PM 41.4 °F 36.2 °F 36.9 °F 84% 29.83 in 10.0 mi NW 8.1 mph - N/A Rain Light Rain
5:12 PM 40.5 °F 32.8 °F 36.1 °F 85% 29.83 in 5.0 mi NW 13.8 mph 19.6 mph 0.01 in Rain Heavy Rain
5:33 PM 40.5 °F 32.5 °F 35.2 °F 82% 29.84 in 7.0 mi NW 15.0 mph 23.0 mph 0.01 in   Drizzle
5:52 PM 40.3 °F 32.2 °F 35.6 °F 83% 29.84 in 10.0 mi NW 15.0 mph - 0.01 in Rain Light Rain
6:12 PM 40.5 °F 32.8 °F 35.6 °F 83% 29.85 in 10.0 mi NW 13.8 mph - N/A   Overcast
6:32 PM 40.5 °F 32.8 °F 36.0 °F 84% 29.86 in 7.0 mi NW 13.8 mph - N/A Rain Heavy Rain
6:52 PM 40.5 °F 32.5 °F 36.0 °F 84% 29.86 in 10.0 mi NW 15.0 mph 20.7 mph N/A   Overcast
7:13 PM 40.1 °F 34.7 °F 35.6 °F 84% 29.87 in 10.0 mi NNW 8.1 mph - N/A   Overcast
7:32 PM 40.3 °F 33.9 °F 35.6 °F 83% 29.88 in 10.0 mi NNW 10.4 mph - N/A   Overcast
7:52 PM 40.3 °F 32.6 °F 34.7 °F 80% 29.88 in 10.0 mi NNW 13.8 mph 18.4 mph N/A   Overcast
8:13 PM 40.1 °F 32.4 °F 33.8 °F 78% 29.89 in 10.0 mi NNW 13.8 mph - N/A   Overcast
8:32 PM 40.1 °F 32.7 °F 33.4 °F 77% 29.89 in 10.0 mi NNW 12.7 mph - N/A   Overcast
8:52 PM 40.1 °F 32.7 °F 33.3 °F 77% 29.90 in 10.0 mi NNW 12.7 mph - N/A   Overcast
9:13 PM 39.7 °F 33.2 °F 33.3 °F 78% 29.90 in 10.0 mi NNW 10.4 mph - N/A   Overcast
9:32 PM 39.6 °F 32.5 °F 33.1 °F 78% 29.91 in 10.0 mi NNW 11.5 mph - N/A   Overcast
9:52 PM 39.4 °F 33.2 °F 33.1 °F 78% 29.92 in 10.0 mi NW 9.2 mph - N/A   Overcast
10:13 PM 39.6 °F 32.5 °F 33.1 °F 78% 29.92 in 10.0 mi NNW 11.5 mph - N/A   Overcast
10:32 PM 39.4 °F 32.3 °F 33.1 °F 78% 29.93 in 10.0 mi NNW 11.5 mph - N/A   Overcast
10:52 PM 39.4 °F 33.2 °F 33.1 °F 78% 29.93 in 10.0 mi NNW 9.2 mph - N/A   Overcast
11:13 PM 39.2 °F 33.0 °F 33.3 °F 79% 29.94 in 10.0 mi NNW 9.2 mph - N/A   Overcast
11:32 PM 39.2 °F 33.0 °F 33.4 °F 80% 29.95 in 10.0 mi NNW 9.2 mph - N/A   Overcast
11:52 PM 39.2 °F 33.6 °F 33.4 °F 80% 29.96 in 10.0 mi NNW 8.1 mph - N/A   Overcast